sensor_id;sensor_type;location;lat;lon;timestamp;temperature;humidity
15556;DHT22;7879;48.660;9.116;2022-09-23T00:01:07;5.70;99.90
15556;DHT22;7879;48.660;9.116;2022-09-23T00:03:35;5.70;99.90
15556;DHT22;7879;48.660;9.116;2022-09-23T00:06:06;5.70;99.90
15556;DHT22;7879;48.660;9.116;2022-09-23T00:08:33;5.60;99.90
15556;DHT22;7879;48.660;9.116;2022-09-23T00:11:08;5.60;99.90
15556;DHT22;7879;48.660;9.116;2022-09-23T00:13:36;5.50;99.90
15556;DHT22;7879;48.660;9.116;2022-09-23T00:16:05;5.50;99.90
15556;DHT22;7879;48.660;9.116;2022-09-23T00:18:32;5.50;99.90
15556;DHT22;7879;48.660;9.116;2022-09-23T00:21:03;5.50;99.90
15556;DHT22;7879;48.660;9.116;2022-09-23T00:23:31;5.40;99.90
15556;DHT22;7879;48.660;9.116;2022-09-23T00:26:00;5.40;99.90
15556;DHT22;7879;48.660;9.116;2022-09-23T00:28:28;5.30;99.90
15556;DHT22;7879;48.660;9.116;2022-09-23T00:30:54;5.40;99.90
15556;DHT22;7879;48.660;9.116;2022-09-23T00:33:21;5.30;99.90
15556;DHT22;7879;48.660;9.116;2022-09-23T00:35:48;5.30;99.90
15556;DHT22;7879;48.660;9.116;2022-09-23T00:38:15;5.20;99.90
15556;DHT22;7879;48.660;9.116;2022-09-23T00:40:43;5.20;99.90
15556;DHT22;7879;48.660;9.116;2022-09-23T00:43:12;5.20;99.90
15556;DHT22;7879;48.660;9.116;2022-09-23T00:45:40;5.10;99.90
15556;DHT22;7879;48.660;9.116;2022-09-23T00:48:15;5.20;99.90
15556;DHT22;7879;48.660;9.116;2022-09-23T00:50:46;5.10;99.90
15556;DHT22;7879;48.660;9.116;2022-09-23T00:53:16;5.10;99.90
15556;DHT22;7879;48.660;9.116;2022-09-23T00:55:49;5.10;99.90
15556;DHT22;7879;48.660;9.116;2022-09-23T00:58:22;5.10;99.90
15556;DHT22;7879;48.660;9.116;2022-09-23T01:00:50;5.00;99.90
15556;DHT22;7879;48.660;9.116;2022-09-23T01:03:16;4.90;99.90
15556;DHT22;7879;48.660;9.116;2022-09-23T01:05:46;4.90;99.90
15556;DHT22;7879;48.660;9.116;2022-09-23T01:08:13;4.90;99.90
15556;DHT22;7879;48.660;9.116;2022-09-23T01:11:05;4.80;99.90
15556;DHT22;7879;48.660;9.116;2022-09-23T01:22:04;4.70;99.90
15556;DHT22;7879;48.660;9.116;2022-09-23T01:25:00;4.70;99.90
15556;DHT22;7879;48.660;9.116;2022-09-23T01:28:35;4.70;99.90
15556;DHT22;7879;48.660;9.116;2022-09-23T01:36:35;4.70;99.90
15556;DHT22;7879;48.660;9.116;2022-09-23T01:39:12;4.70;99.90
15556;DHT22;7879;48.660;9.116;2022-09-23T01:42:16;4.60;99.90
15556;DHT22;7879;48.660;9.116;2022-09-23T01:44:54;4.60;99.90
15556;DHT22;7879;48.660;9.116;2022-09-23T01:47:38;4.50;99.90
15556;DHT22;7879;48.660;9.116;2022-09-23T01:50:15;4.50;99.90
15556;DHT22;7879;48.660;9.116;2022-09-23T01:53:09;4.50;99.90
15556;DHT22;7879;48.660;9.116;2022-09-23T01:55:40;4.40;99.90
15556;DHT22;7879;48.660;9.116;2022-09-23T01:58:14;4.50;99.90
15556;DHT22;7879;48.660;9.116;2022-09-23T02:00:59;4.40;99.90
15556;DHT22;7879;48.660;9.116;2022-09-23T02:03:51;4.50;99.90
15556;DHT22;7879;48.660;9.116;2022-09-23T02:06:24;4.40;99.90
15556;DHT22;7879;48.660;9.116;2022-09-23T02:08:58;4.30;99.90
15556;DHT22;7879;48.660;9.116;2022-09-23T02:11:26;4.30;99.90
15556;DHT22;7879;48.660;9.116;2022-09-23T02:14:09;4.30;99.90
15556;DHT22;7879;48.660;9.116;2022-09-23T02:16:58;4.30;99.90
15556;DHT22;7879;48.660;9.116;2022-09-23T02:22:01;4.30;99.90
15556;DHT22;7879;48.660;9.116;2022-09-23T02:24:33;4.40;99.90
15556;DHT22;7879;48.660;9.116;2022-09-23T02:27:31;4.30;99.90
15556;DHT22;7879;48.660;9.116;2022-09-23T02:33:03;4.20;99.90
15556;DHT22;7879;48.660;9.116;2022-09-23T02:41:02;4.10;99.90
15556;DHT22;7879;48.660;9.116;2022-09-23T02:43:41;4.20;99.90
15556;DHT22;7879;48.660;9.116;2022-09-23T02:46:09;4.00;99.90
15556;DHT22;7879;48.660;9.116;2022-09-23T02:48:48;4.00;99.90
15556;DHT22;7879;48.660;9.116;2022-09-23T02:51:16;4.00;99.90
15556;DHT22;7879;48.660;9.116;2022-09-23T02:53:42;3.90;99.90
15556;DHT22;7879;48.660;9.116;2022-09-23T02:56:17;3.90;99.90
15556;DHT22;7879;48.660;9.116;2022-09-23T02:58:52;3.80;99.90
15556;DHT22;7879;48.660;9.116;2022-09-23T03:04:19;3.90;99.90
15556;DHT22;7879;48.660;9.116;2022-09-23T03:09:46;3.80;99.90
15556;DHT22;7879;48.660;9.116;2022-09-23T03:15:20;3.80;99.90
15556;DHT22;7879;48.660;9.116;2022-09-23T03:18:11;3.70;99.90
15556;DHT22;7879;48.660;9.116;2022-09-23T03:20:54;3.70;99.90
15556;DHT22;7879;48.660;9.116;2022-09-23T03:23:26;3.60;99.90
15556;DHT22;7879;48.660;9.116;2022-09-23T03:25:55;3.60;99.90
15556;DHT22;7879;48.660;9.116;2022-09-23T03:28:23;3.60;99.90
15556;DHT22;7879;48.660;9.116;2022-09-23T03:30:52;3.60;99.90
15556;DHT22;7879;48.660;9.116;2022-09-23T03:33:21;3.70;99.90
15556;DHT22;7879;48.660;9.116;2022-09-23T03:36:02;3.50;99.90
15556;DHT22;7879;48.660;9.116;2022-09-23T03:38:50;3.50;99.90
15556;DHT22;7879;48.660;9.116;2022-09-23T03:41:27;3.60;99.90
15556;DHT22;7879;48.660;9.116;2022-09-23T03:43:56;3.60;99.90
15556;DHT22;7879;48.660;9.116;2022-09-23T03:46:26;3.60;99.90
15556;DHT22;7879;48.660;9.116;2022-09-23T03:49:14;3.50;99.90
15556;DHT22;7879;48.660;9.116;2022-09-23T03:51:41;3.60;99.90
15556;DHT22;7879;48.660;9.116;2022-09-23T03:54:10;3.60;99.90
15556;DHT22;7879;48.660;9.116;2022-09-23T03:56:37;3.50;99.90
15556;DHT22;7879;48.660;9.116;2022-09-23T03:59:04;3.40;99.90
15556;DHT22;7879;48.660;9.116;2022-09-23T04:01:30;3.40;99.90
15556;DHT22;7879;48.660;9.116;2022-09-23T04:03:57;3.40;99.90
15556;DHT22;7879;48.660;9.116;2022-09-23T04:06:23;3.40;99.90
15556;DHT22;7879;48.660;9.116;2022-09-23T04:08:50;3.40;99.90
15556;DHT22;7879;48.660;9.116;2022-09-23T04:11:17;3.30;99.90
15556;DHT22;7879;48.660;9.116;2022-09-23T04:13:44;3.30;99.90
15556;DHT22;7879;48.660;9.116;2022-09-23T04:16:10;3.30;99.90
15556;DHT22;7879;48.660;9.116;2022-09-23T04:18:37;3.30;99.90
15556;DHT22;7879;48.660;9.116;2022-09-23T04:21:04;3.30;99.90
15556;DHT22;7879;48.660;9.116;2022-09-23T04:23:30;3.20;99.90
15556;DHT22;7879;48.660;9.116;2022-09-23T04:25:57;3.30;99.90
15556;DHT22;7879;48.660;9.116;2022-09-23T04:28:24;3.20;99.90
15556;DHT22;7879;48.660;9.116;2022-09-23T04:30:50;3.10;99.90
15556;DHT22;7879;48.660;9.116;2022-09-23T04:33:17;3.20;99.90
15556;DHT22;7879;48.660;9.116;2022-09-23T04:35:52;3.20;99.90
15556;DHT22;7879;48.660;9.116;2022-09-23T04:38:18;3.00;99.90
15556;DHT22;7879;48.660;9.116;2022-09-23T04:40:45;3.00;99.90
15556;DHT22;7879;48.660;9.116;2022-09-23T04:43:12;3.10;99.90
15556;DHT22;7879;48.660;9.116;2022-09-23T04:45:42;3.00;99.90
15556;DHT22;7879;48.660;9.116;2022-09-23T04:48:10;2.90;99.90
15556;DHT22;7879;48.660;9.116;2022-09-23T04:50:38;2.90;99.90
15556;DHT22;7879;48.660;9.116;2022-09-23T04:53:05;2.90;99.90
15556;DHT22;7879;48.660;9.116;2022-09-23T04:55:32;2.90;99.90
15556;DHT22;7879;48.660;9.116;2022-09-23T04:57:58;2.90;99.90
15556;DHT22;7879;48.660;9.116;2022-09-23T05:00:25;2.80;99.90
15556;DHT22;7879;48.660;9.116;2022-09-23T05:02:52;2.90;99.90
15556;DHT22;7879;48.660;9.116;2022-09-23T05:05:19;2.80;99.90
15556;DHT22;7879;48.660;9.116;2022-09-23T05:07:47;2.90;99.90
15556;DHT22;7879;48.660;9.116;2022-09-23T05:10:14;2.90;99.90
15556;DHT22;7879;48.660;9.116;2022-09-23T05:12:41;2.90;99.90
15556;DHT22;7879;48.660;9.116;2022-09-23T05:15:08;2.80;99.90
15556;DHT22;7879;48.660;9.116;2022-09-23T05:17:35;2.80;99.90
15556;DHT22;7879;48.660;9.116;2022-09-23T05:20:03;2.80;99.90
15556;DHT22;7879;48.660;9.116;2022-09-23T05:22:30;2.80;99.90
15556;DHT22;7879;48.660;9.116;2022-09-23T05:24:57;2.70;99.90
15556;DHT22;7879;48.660;9.116;2022-09-23T05:27:25;2.70;99.90
15556;DHT22;7879;48.660;9.116;2022-09-23T05:29:52;2.70;99.90
15556;DHT22;7879;48.660;9.116;2022-09-23T05:32:19;2.70;99.90
15556;DHT22;7879;48.660;9.116;2022-09-23T05:34:47;2.70;99.90
15556;DHT22;7879;48.660;9.116;2022-09-23T05:37:14;2.70;99.90
15556;DHT22;7879;48.660;9.116;2022-09-23T05:39:40;2.70;99.90
15556;DHT22;7879;48.660;9.116;2022-09-23T05:42:07;2.80;99.90
15556;DHT22;7879;48.660;9.116;2022-09-23T05:44:34;2.80;99.90
15556;DHT22;7879;48.660;9.116;2022-09-23T05:47:01;2.80;99.90
15556;DHT22;7879;48.660;9.116;2022-09-23T05:49:28;2.80;99.90
15556;DHT22;7879;48.660;9.116;2022-09-23T05:52:14;2.80;99.90
15556;DHT22;7879;48.660;9.116;2022-09-23T05:54:40;2.90;99.90
15556;DHT22;7879;48.660;9.116;2022-09-23T05:57:07;2.90;99.90
15556;DHT22;7879;48.660;9.116;2022-09-23T05:59:34;2.90;99.90
15556;DHT22;7879;48.660;9.116;2022-09-23T06:02:00;3.00;99.90
15556;DHT22;7879;48.660;9.116;2022-09-23T06:04:27;3.00;99.90
15556;DHT22;7879;48.660;9.116;2022-09-23T06:07:06;3.00;99.90
15556;DHT22;7879;48.660;9.116;2022-09-23T06:10:09;3.10;99.90
15556;DHT22;7879;48.660;9.116;2022-09-23T06:12:56;3.20;99.90
15556;DHT22;7879;48.660;9.116;2022-09-23T06:15:22;3.20;99.90
15556;DHT22;7879;48.660;9.116;2022-09-23T06:17:52;3.20;99.90
15556;DHT22;7879;48.660;9.116;2022-09-23T06:20:19;3.30;99.90
15556;DHT22;7879;48.660;9.116;2022-09-23T06:22:45;3.30;99.90
15556;DHT22;7879;48.660;9.116;2022-09-23T06:25:17;3.30;99.90
15556;DHT22;7879;48.660;9.116;2022-09-23T06:27:54;3.50;99.90
15556;DHT22;7879;48.660;9.116;2022-09-23T06:30:22;3.70;99.90
15556;DHT22;7879;48.660;9.116;2022-09-23T06:32:53;3.70;99.90
15556;DHT22;7879;48.660;9.116;2022-09-23T06:35:22;3.70;99.90
15556;DHT22;7879;48.660;9.116;2022-09-23T06:37:54;3.80;99.90
15556;DHT22;7879;48.660;9.116;2022-09-23T06:40:21;3.90;99.90
15556;DHT22;7879;48.660;9.116;2022-09-23T06:42:55;3.90;99.90
15556;DHT22;7879;48.660;9.116;2022-09-23T06:45:22;4.10;99.90
15556;DHT22;7879;48.660;9.116;2022-09-23T06:47:56;4.10;99.90
15556;DHT22;7879;48.660;9.116;2022-09-23T06:50:24;4.20;99.90
15556;DHT22;7879;48.660;9.116;2022-09-23T06:52:53;4.30;99.90
15556;DHT22;7879;48.660;9.116;2022-09-23T06:55:25;4.30;99.90
15556;DHT22;7879;48.660;9.116;2022-09-23T06:57:53;4.50;99.90
15556;DHT22;7879;48.660;9.116;2022-09-23T07:00:20;4.50;99.90
15556;DHT22;7879;48.660;9.116;2022-09-23T07:02:47;4.70;99.90
15556;DHT22;7879;48.660;9.116;2022-09-23T07:05:23;4.80;99.90
15556;DHT22;7879;48.660;9.116;2022-09-23T07:07:50;4.90;99.90
15556;DHT22;7879;48.660;9.116;2022-09-23T07:10:16;4.90;99.90
15556;DHT22;7879;48.660;9.116;2022-09-23T07:12:43;5.10;99.90
15556;DHT22;7879;48.660;9.116;2022-09-23T07:15:10;5.20;99.90
15556;DHT22;7879;48.660;9.116;2022-09-23T07:17:40;5.30;99.90
15556;DHT22;7879;48.660;9.116;2022-09-23T07:20:09;5.50;99.90
15556;DHT22;7879;48.660;9.116;2022-09-23T07:22:37;5.60;99.90
15556;DHT22;7879;48.660;9.116;2022-09-23T07:25:04;5.70;99.90
15556;DHT22;7879;48.660;9.116;2022-09-23T07:27:32;5.80;99.90
15556;DHT22;7879;48.660;9.116;2022-09-23T07:29:59;6.00;99.90
15556;DHT22;7879;48.660;9.116;2022-09-23T07:32:26;6.10;99.90
15556;DHT22;7879;48.660;9.116;2022-09-23T07:34:56;6.20;99.90
15556;DHT22;7879;48.660;9.116;2022-09-23T07:37:23;6.30;99.90
15556;DHT22;7879;48.660;9.116;2022-09-23T07:39:50;6.40;99.90
15556;DHT22;7879;48.660;9.116;2022-09-23T07:42:16;6.60;99.90
15556;DHT22;7879;48.660;9.116;2022-09-23T07:44:43;6.70;99.90
15556;DHT22;7879;48.660;9.116;2022-09-23T07:47:10;6.90;99.90
15556;DHT22;7879;48.660;9.116;2022-09-23T07:49:37;7.10;99.90
15556;DHT22;7879;48.660;9.116;2022-09-23T07:52:04;7.20;99.90
15556;DHT22;7879;48.660;9.116;2022-09-23T07:54:30;7.30;99.90
15556;DHT22;7879;48.660;9.116;2022-09-23T07:56:58;7.40;99.90
15556;DHT22;7879;48.660;9.116;2022-09-23T07:59:41;7.40;99.90
15556;DHT22;7879;48.660;9.116;2022-09-23T08:02:17;7.50;99.90
15556;DHT22;7879;48.660;9.116;2022-09-23T08:04:44;7.70;99.90
15556;DHT22;7879;48.660;9.116;2022-09-23T08:07:12;7.80;99.90
15556;DHT22;7879;48.660;9.116;2022-09-23T08:09:41;7.80;99.90
15556;DHT22;7879;48.660;9.116;2022-09-23T08:12:10;7.90;99.90
15556;DHT22;7879;48.660;9.116;2022-09-23T08:14:41;7.90;99.90
15556;DHT22;7879;48.660;9.116;2022-09-23T08:17:11;8.00;99.90
15556;DHT22;7879;48.660;9.116;2022-09-23T08:19:38;8.10;99.90
15556;DHT22;7879;48.660;9.116;2022-09-23T08:22:05;8.20;99.90
15556;DHT22;7879;48.660;9.116;2022-09-23T08:24:31;8.30;99.90
15556;DHT22;7879;48.660;9.116;2022-09-23T08:26:58;8.40;99.90
15556;DHT22;7879;48.660;9.116;2022-09-23T08:29:25;8.60;99.90
15556;DHT22;7879;48.660;9.116;2022-09-23T08:31:52;8.70;99.90
15556;DHT22;7879;48.660;9.116;2022-09-23T08:34:20;8.80;99.90
15556;DHT22;7879;48.660;9.116;2022-09-23T08:36:48;8.90;99.90
15556;DHT22;7879;48.660;9.116;2022-09-23T08:39:16;8.90;99.90
15556;DHT22;7879;48.660;9.116;2022-09-23T08:44:29;9.10;99.90
15556;DHT22;7879;48.660;9.116;2022-09-23T08:47:06;9.20;99.90
15556;DHT22;7879;48.660;9.116;2022-09-23T08:49:40;9.30;99.90
15556;DHT22;7879;48.660;9.116;2022-09-23T08:52:19;9.40;99.90
15556;DHT22;7879;48.660;9.116;2022-09-23T08:55:00;9.50;99.90
15556;DHT22;7879;48.660;9.116;2022-09-23T08:57:39;9.60;99.90
15556;DHT22;7879;48.660;9.116;2022-09-23T09:00:14;9.80;99.90
15556;DHT22;7879;48.660;9.116;2022-09-23T09:02:44;9.90;99.90
15556;DHT22;7879;48.660;9.116;2022-09-23T09:05:16;10.00;99.90
15556;DHT22;7879;48.660;9.116;2022-09-23T09:07:45;10.10;99.90
15556;DHT22;7879;48.660;9.116;2022-09-23T09:10:18;10.10;99.90
15556;DHT22;7879;48.660;9.116;2022-09-23T09:13:20;10.10;99.90
15556;DHT22;7879;48.660;9.116;2022-09-23T09:16:23;10.20;99.90
15556;DHT22;7879;48.660;9.116;2022-09-23T09:19:21;10.20;99.90
15556;DHT22;7879;48.660;9.116;2022-09-23T09:21:52;10.30;99.90
15556;DHT22;7879;48.660;9.116;2022-09-23T09:24:30;10.40;99.90
15556;DHT22;7879;48.660;9.116;2022-09-23T09:27:00;10.60;99.90
15556;DHT22;7879;48.660;9.116;2022-09-23T09:29:31;10.80;99.90
15556;DHT22;7879;48.660;9.116;2022-09-23T09:32:17;11.00;99.90
15556;DHT22;7879;48.660;9.116;2022-09-23T09:34:57;11.20;99.90
15556;DHT22;7879;48.660;9.116;2022-09-23T09:37:54;11.50;99.90
15556;DHT22;7879;48.660;9.116;2022-09-23T09:40:21;11.70;99.90
15556;DHT22;7879;48.660;9.116;2022-09-23T09:42:49;12.00;99.90
15556;DHT22;7879;48.660;9.116;2022-09-23T09:45:17;12.30;99.90
15556;DHT22;7879;48.660;9.116;2022-09-23T09:50:49;12.70;99.90
15556;DHT22;7879;48.660;9.116;2022-09-23T09:53:26;13.00;99.90
15556;DHT22;7879;48.660;9.116;2022-09-23T09:56:13;13.30;99.90
15556;DHT22;7879;48.660;9.116;2022-09-23T09:58:54;13.70;99.90
15556;DHT22;7879;48.660;9.116;2022-09-23T10:01:31;14.00;99.90
15556;DHT22;7879;48.660;9.116;2022-09-23T10:04:22;14.30;99.90
15556;DHT22;7879;48.660;9.116;2022-09-23T10:07:06;14.60;99.90
15556;DHT22;7879;48.660;9.116;2022-09-23T10:09:37;14.90;99.90
15556;DHT22;7879;48.660;9.116;2022-09-23T10:14:45;15.00;99.90
15556;DHT22;7879;48.660;9.116;2022-09-23T10:17:25;15.30;99.90
15556;DHT22;7879;48.660;9.116;2022-09-23T10:19:58;15.60;99.90
15556;DHT22;7879;48.660;9.116;2022-09-23T10:22:38;15.90;99.90
15556;DHT22;7879;48.660;9.116;2022-09-23T10:25:15;15.90;99.90
15556;DHT22;7879;48.660;9.116;2022-09-23T10:27:42;16.00;99.90
15556;DHT22;7879;48.660;9.116;2022-09-23T10:32:44;16.30;99.90
15556;DHT22;7879;48.660;9.116;2022-09-23T10:37:50;16.60;99.90
15556;DHT22;7879;48.660;9.116;2022-09-23T10:40:38;16.70;99.90
15556;DHT22;7879;48.660;9.116;2022-09-23T10:47:21;17.00;99.90
15556;DHT22;7879;48.660;9.116;2022-09-23T10:55:29;18.00;99.90
15556;DHT22;7879;48.660;9.116;2022-09-23T10:58:22;18.10;99.90
15556;DHT22;7879;48.660;9.116;2022-09-23T11:12:00;18.40;99.90
15556;DHT22;7879;48.660;9.116;2022-09-23T11:21:00;18.80;99.90
15556;DHT22;7879;48.660;9.116;2022-09-23T11:23:46;18.90;99.90
15556;DHT22;7879;48.660;9.116;2022-09-23T11:26:29;19.10;99.90
15556;DHT22;7879;48.660;9.116;2022-09-23T11:29:24;19.20;99.30
15556;DHT22;7879;48.660;9.116;2022-09-23T11:37:51;18.60;99.40
15556;DHT22;7879;48.660;9.116;2022-09-23T11:40:33;18.40;99.30
15556;DHT22;7879;48.660;9.116;2022-09-23T11:43:24;18.30;99.80
15556;DHT22;7879;48.660;9.116;2022-09-23T11:48:55;18.40;99.90
15556;DHT22;7879;48.660;9.116;2022-09-23T11:51:24;18.70;99.80
15556;DHT22;7879;48.660;9.116;2022-09-23T11:53:58;18.90;99.50
15556;DHT22;7879;48.660;9.116;2022-09-23T11:56:36;19.10;98.70
15556;DHT22;7879;48.660;9.116;2022-09-23T12:05:08;19.20;98.20
15556;DHT22;7879;48.660;9.116;2022-09-23T12:07:58;19.10;98.20
15556;DHT22;7879;48.660;9.116;2022-09-23T12:24:56;19.00;98.10
15556;DHT22;7879;48.660;9.116;2022-09-23T12:27:30;19.00;98.40
15556;DHT22;7879;48.660;9.116;2022-09-23T12:30:01;18.90;98.80
15556;DHT22;7879;48.660;9.116;2022-09-23T12:32:29;19.00;98.30
15556;DHT22;7879;48.660;9.116;2022-09-23T12:34:57;18.80;98.60
15556;DHT22;7879;48.660;9.116;2022-09-23T12:37:36;18.70;98.00
15556;DHT22;7879;48.660;9.116;2022-09-23T12:42:45;18.80;98.80
15556;DHT22;7879;48.660;9.116;2022-09-23T12:48:24;19.00;99.40
15556;DHT22;7879;48.660;9.116;2022-09-23T12:56:01;19.00;98.90
15556;DHT22;7879;48.660;9.116;2022-09-23T13:03:49;18.70;98.00
15556;DHT22;7879;48.660;9.116;2022-09-23T13:06:52;18.70;99.20
15556;DHT22;7879;48.660;9.116;2022-09-23T13:09:26;18.80;98.40
15556;DHT22;7879;48.660;9.116;2022-09-23T13:11:57;18.80;98.50
15556;DHT22;7879;48.660;9.116;2022-09-23T13:14:27;18.80;98.30
15556;DHT22;7879;48.660;9.116;2022-09-23T13:16:56;18.70;98.30
15556;DHT22;7879;48.660;9.116;2022-09-23T13:27:25;18.70;99.00
15556;DHT22;7879;48.660;9.116;2022-09-23T13:32:20;18.80;98.70
15556;DHT22;7879;48.660;9.116;2022-09-23T13:35:05;18.70;99.00
15556;DHT22;7879;48.660;9.116;2022-09-23T13:37:43;18.60;99.10
15556;DHT22;7879;48.660;9.116;2022-09-23T13:40:20;18.50;98.50
15556;DHT22;7879;48.660;9.116;2022-09-23T13:42:55;18.40;98.80
15556;DHT22;7879;48.660;9.116;2022-09-23T13:45:25;18.30;98.60
15556;DHT22;7879;48.660;9.116;2022-09-23T13:47:57;18.30;98.70
15556;DHT22;7879;48.660;9.116;2022-09-23T13:50:25;18.30;98.90
15556;DHT22;7879;48.660;9.116;2022-09-23T13:52:58;18.30;99.10
15556;DHT22;7879;48.660;9.116;2022-09-23T13:55:32;18.40;99.30
15556;DHT22;7879;48.660;9.116;2022-09-23T13:58:02;18.40;99.30
15556;DHT22;7879;48.660;9.116;2022-09-23T14:00:36;18.40;99.20
15556;DHT22;7879;48.660;9.116;2022-09-23T14:03:23;18.40;98.90
15556;DHT22;7879;48.660;9.116;2022-09-23T14:05:53;18.40;98.70
15556;DHT22;7879;48.660;9.116;2022-09-23T14:08:20;18.30;98.70
15556;DHT22;7879;48.660;9.116;2022-09-23T14:10:48;18.30;98.60
15556;DHT22;7879;48.660;9.116;2022-09-23T14:13:40;18.40;98.60
15556;DHT22;7879;48.660;9.116;2022-09-23T14:16:02;18.40;98.70
15556;DHT22;7879;48.660;9.116;2022-09-23T14:18:36;18.40;98.50
15556;DHT22;7879;48.660;9.116;2022-09-23T14:21:05;18.50;99.00
15556;DHT22;7879;48.660;9.116;2022-09-23T14:23:32;18.50;99.00
15556;DHT22;7879;48.660;9.116;2022-09-23T14:26:00;18.50;98.70
15556;DHT22;7879;48.660;9.116;2022-09-23T14:28:28;18.50;98.80
15556;DHT22;7879;48.660;9.116;2022-09-23T14:30:55;18.50;98.80
15556;DHT22;7879;48.660;9.116;2022-09-23T14:33:27;18.50;98.90
15556;DHT22;7879;48.660;9.116;2022-09-23T14:36:02;18.50;98.90
15556;DHT22;7879;48.660;9.116;2022-09-23T14:38:32;18.40;99.10
15556;DHT22;7879;48.660;9.116;2022-09-23T14:41:23;18.40;99.20
15556;DHT22;7879;48.660;9.116;2022-09-23T14:43:59;18.30;99.30
15556;DHT22;7879;48.660;9.116;2022-09-23T14:46:30;18.20;98.60
15556;DHT22;7879;48.660;9.116;2022-09-23T14:51:48;18.20;99.00
15556;DHT22;7879;48.660;9.116;2022-09-23T14:56:55;18.10;99.00
15556;DHT22;7879;48.660;9.116;2022-09-23T14:59:30;18.10;99.10
15556;DHT22;7879;48.660;9.116;2022-09-23T15:01:57;18.10;99.10
15556;DHT22;7879;48.660;9.116;2022-09-23T15:07:07;18.00;98.90
15556;DHT22;7879;48.660;9.116;2022-09-23T15:09:41;17.90;99.20
15556;DHT22;7879;48.660;9.116;2022-09-23T15:12:14;17.90;99.40
15556;DHT22;7879;48.660;9.116;2022-09-23T15:14:48;17.90;99.30
15556;DHT22;7879;48.660;9.116;2022-09-23T15:22:49;17.90;99.40
15556;DHT22;7879;48.660;9.116;2022-09-23T15:30:23;17.80;99.40
15556;DHT22;7879;48.660;9.116;2022-09-23T15:32:50;17.80;99.50
15556;DHT22;7879;48.660;9.116;2022-09-23T15:35:19;17.70;99.70
15556;DHT22;7879;48.660;9.116;2022-09-23T15:37:48;17.70;99.60
15556;DHT22;7879;48.660;9.116;2022-09-23T15:40:16;17.70;99.50
15556;DHT22;7879;48.660;9.116;2022-09-23T15:42:45;17.70;99.80
15556;DHT22;7879;48.660;9.116;2022-09-23T15:45:19;17.60;99.90
15556;DHT22;7879;48.660;9.116;2022-09-23T15:47:48;17.60;99.90
15556;DHT22;7879;48.660;9.116;2022-09-23T15:50:16;17.60;99.90
15556;DHT22;7879;48.660;9.116;2022-09-23T15:52:43;17.60;99.90
15556;DHT22;7879;48.660;9.116;2022-09-23T15:55:18;17.60;99.90
15556;DHT22;7879;48.660;9.116;2022-09-23T15:57:47;17.50;99.90
15556;DHT22;7879;48.660;9.116;2022-09-23T16:00:15;17.50;99.90
15556;DHT22;7879;48.660;9.116;2022-09-23T16:02:44;17.50;99.90
15556;DHT22;7879;48.660;9.116;2022-09-23T16:05:38;17.50;99.90
15556;DHT22;7879;48.660;9.116;2022-09-23T16:08:07;17.50;99.90
15556;DHT22;7879;48.660;9.116;2022-09-23T16:10:35;17.50;99.90
15556;DHT22;7879;48.660;9.116;2022-09-23T16:13:05;17.50;99.90
15556;DHT22;7879;48.660;9.116;2022-09-23T16:15:33;17.40;99.90
15556;DHT22;7879;48.660;9.116;2022-09-23T16:18:00;17.40;99.90
15556;DHT22;7879;48.660;9.116;2022-09-23T16:20:28;17.30;99.90
15556;DHT22;7879;48.660;9.116;2022-09-23T16:23:27;17.30;99.90
15556;DHT22;7879;48.660;9.116;2022-09-23T16:28:48;17.30;99.90
15556;DHT22;7879;48.660;9.116;2022-09-23T16:31:15;17.20;99.90
15556;DHT22;7879;48.660;9.116;2022-09-23T16:33:43;17.10;99.90
15556;DHT22;7879;48.660;9.116;2022-09-23T16:36:22;17.00;99.90
15556;DHT22;7879;48.660;9.116;2022-09-23T16:38:53;17.00;99.90
15556;DHT22;7879;48.660;9.116;2022-09-23T16:41:25;17.00;99.90
15556;DHT22;7879;48.660;9.116;2022-09-23T16:43:52;17.00;99.90
15556;DHT22;7879;48.660;9.116;2022-09-23T16:46:19;16.90;99.90
15556;DHT22;7879;48.660;9.116;2022-09-23T16:48:46;16.80;99.90
15556;DHT22;7879;48.660;9.116;2022-09-23T16:51:20;16.70;99.90
15556;DHT22;7879;48.660;9.116;2022-09-23T16:53:48;16.60;99.90
15556;DHT22;7879;48.660;9.116;2022-09-23T16:56:18;16.50;99.90
15556;DHT22;7879;48.660;9.116;2022-09-23T16:58:53;16.50;99.90
15556;DHT22;7879;48.660;9.116;2022-09-23T17:01:25;16.40;99.90
15556;DHT22;7879;48.660;9.116;2022-09-23T17:04:11;16.30;99.90
15556;DHT22;7879;48.660;9.116;2022-09-23T17:06:42;16.20;99.90
15556;DHT22;7879;48.660;9.116;2022-09-23T17:09:10;16.20;99.90
15556;DHT22;7879;48.660;9.116;2022-09-23T17:11:37;16.10;99.90
15556;DHT22;7879;48.660;9.116;2022-09-23T17:14:04;16.10;99.90
15556;DHT22;7879;48.660;9.116;2022-09-23T17:16:32;16.10;99.90
15556;DHT22;7879;48.660;9.116;2022-09-23T17:19:08;16.00;99.90
15556;DHT22;7879;48.660;9.116;2022-09-23T17:21:35;15.90;99.90
15556;DHT22;7879;48.660;9.116;2022-09-23T17:24:02;15.90;99.90
15556;DHT22;7879;48.660;9.116;2022-09-23T17:26:30;15.70;99.90
15556;DHT22;7879;48.660;9.116;2022-09-23T17:28:57;15.70;99.90
15556;DHT22;7879;48.660;9.116;2022-09-23T17:31:27;15.60;99.90
15556;DHT22;7879;48.660;9.116;2022-09-23T17:33:54;15.50;99.90
15556;DHT22;7879;48.660;9.116;2022-09-23T17:36:21;15.50;99.90
15556;DHT22;7879;48.660;9.116;2022-09-23T17:38:48;15.40;99.90
15556;DHT22;7879;48.660;9.116;2022-09-23T17:41:19;15.30;99.90
15556;DHT22;7879;48.660;9.116;2022-09-23T17:43:52;15.20;99.90
15556;DHT22;7879;48.660;9.116;2022-09-23T17:46:18;15.10;99.90
15556;DHT22;7879;48.660;9.116;2022-09-23T17:48:45;15.10;99.90
15556;DHT22;7879;48.660;9.116;2022-09-23T17:51:15;15.10;99.90
15556;DHT22;7879;48.660;9.116;2022-09-23T17:53:45;15.00;99.90
15556;DHT22;7879;48.660;9.116;2022-09-23T17:56:15;14.90;99.90
15556;DHT22;7879;48.660;9.116;2022-09-23T17:58:43;14.80;99.90
15556;DHT22;7879;48.660;9.116;2022-09-23T18:01:15;14.80;99.90
15556;DHT22;7879;48.660;9.116;2022-09-23T18:03:42;14.70;99.90
15556;DHT22;7879;48.660;9.116;2022-09-23T18:06:15;14.70;99.90
15556;DHT22;7879;48.660;9.116;2022-09-23T18:08:44;14.60;99.90
15556;DHT22;7879;48.660;9.116;2022-09-23T18:11:19;14.50;99.90
15556;DHT22;7879;48.660;9.116;2022-09-23T18:13:59;14.40;99.90
15556;DHT22;7879;48.660;9.116;2022-09-23T18:16:28;14.40;99.90
15556;DHT22;7879;48.660;9.116;2022-09-23T18:18:57;14.40;99.90
15556;DHT22;7879;48.660;9.116;2022-09-23T18:21:28;14.30;99.90
15556;DHT22;7879;48.660;9.116;2022-09-23T18:23:59;14.30;99.90
15556;DHT22;7879;48.660;9.116;2022-09-23T18:26:51;14.10;99.90
15556;DHT22;7879;48.660;9.116;2022-09-23T18:29:20;14.30;99.90
15556;DHT22;7879;48.660;9.116;2022-09-23T18:31:46;14.10;99.90
15556;DHT22;7879;48.660;9.116;2022-09-23T18:34:16;14.10;99.90
15556;DHT22;7879;48.660;9.116;2022-09-23T18:36:43;14.10;99.90
15556;DHT22;7879;48.660;9.116;2022-09-23T18:39:10;14.00;99.90
15556;DHT22;7879;48.660;9.116;2022-09-23T18:41:37;13.90;99.90
15556;DHT22;7879;48.660;9.116;2022-09-23T18:44:04;13.90;99.90
15556;DHT22;7879;48.660;9.116;2022-09-23T18:46:31;13.80;99.90
15556;DHT22;7879;48.660;9.116;2022-09-23T18:48:58;13.80;99.90
15556;DHT22;7879;48.660;9.116;2022-09-23T18:51:52;13.80;99.90
15556;DHT22;7879;48.660;9.116;2022-09-23T18:54:21;13.70;99.90
15556;DHT22;7879;48.660;9.116;2022-09-23T18:56:48;13.60;99.90
15556;DHT22;7879;48.660;9.116;2022-09-23T18:59:19;13.60;99.90